Havana, North Dakota
Current Conditions -  °F | °C
As of 1:15 PM on Thursday 23 Oct 2014 (Local Time) from KGWR Reporting Station
Clear Clear  
Wind Chill: 64°   Ceiling: Unl
Heat Index: 64°   Visibility: 10mi
Dew Point: 45°   Wind: 12mph
Humidity: 49%   Direction: 200°SSW
Pressure: 29.91"   Gusts: NA
Location:  45.95°N, 97.62°W
Report Text: KGWR 231815Z AUTO 20010KT 10SM CLR 18/07 A2991 RMK A01 P000
Loading
Personal Weather Stations






























Interactive Weather Map
Tropical Storm Tracking
New forecast layout! Learn more

10-Day Weather Forecast

Advertisements
Track Severe Weather on mobile